PILOTS ONLINE: 455    ATC ONLINE: 92

PABI

Allen Army Airfield

Location

IATA BIG
City Delta Junction Ft Greely
Country  United States
Latitude 63° 59' 40" N
Longitude 145° 43' 19" W
Elevation 1291 ft
Type Medium Airport

Map

Weather

METAR
2014/08/27 15:53
PABI 271553Z 00000KT 10SM -RA OVC031 09/08 A2989 RMK AO2 RAE09B33 SLP128 P0000 T00940083
TAF
2014/08/27 22:42
TAF PABI 2622/2804 22006KT 9999 FEW020 BKN030 BKN070 QNH2981INS 
      TEMPO 2702/2704 9000 -RA VCTS BKN020CB 600707 
      BECMG 2714/2715 21006KT 9000 -SHRA BKN015 BKN030 BKN070 600707 QNH2984INS 
      BECMG 2720/2721 19012KT 9999 NSW FEW025 SCT030 BKN070 QNH2979INS TX18/2701Z TN08/2712Z LAST NO 
      AMDS AFT 2704 NEXT 2714 COR 27/0322

Runways

01/19 9000 ft / 150 ft
07/25 4679 ft / 164 ft
10/28 6115 ft / 150 ft

Outbound flights

Callsign Flying to Pilot ATD/STD ETA Aircraft

Inbound flights

Callsign Flying from Pilot ATD ETA Aircraft